sensor_id;sensor_type;location;lat;lon;timestamp;temperature;humidity
10175;DHT22;18221;38.704;0.152;2024-02-16T00:01:14;13.80;99.90
10175;DHT22;18221;38.704;0.152;2024-02-16T00:03:42;13.80;99.90
10175;DHT22;18221;38.704;0.152;2024-02-16T00:06:11;13.80;99.90
10175;DHT22;18221;38.704;0.152;2024-02-16T00:08:40;13.70;99.90
10175;DHT22;18221;38.704;0.152;2024-02-16T00:11:08;13.70;99.90
10175;DHT22;18221;38.704;0.152;2024-02-16T00:13:36;13.60;99.90
10175;DHT22;18221;38.704;0.152;2024-02-16T00:16:05;13.60;99.90
10175;DHT22;18221;38.704;0.152;2024-02-16T00:18:33;13.60;99.90
10175;DHT22;18221;38.704;0.152;2024-02-16T00:21:01;13.60;99.90
10175;DHT22;18221;38.704;0.152;2024-02-16T00:23:35;13.70;99.90
10175;DHT22;18221;38.704;0.152;2024-02-16T00:26:05;13.60;99.90
10175;DHT22;18221;38.704;0.152;2024-02-16T00:28:33;13.60;99.90
10175;DHT22;18221;38.704;0.152;2024-02-16T00:31:01;13.60;99.90
10175;DHT22;18221;38.704;0.152;2024-02-16T00:33:31;13.60;99.90
10175;DHT22;18221;38.704;0.152;2024-02-16T00:35:59;13.60;99.90
10175;DHT22;18221;38.704;0.152;2024-02-16T00:38:27;13.60;99.90
10175;DHT22;18221;38.704;0.152;2024-02-16T00:40:57;13.60;99.90
10175;DHT22;18221;38.704;0.152;2024-02-16T00:43:25;13.60;99.90
10175;DHT22;18221;38.704;0.152;2024-02-16T00:45:53;13.60;99.90
10175;DHT22;18221;38.704;0.152;2024-02-16T00:48:22;13.60;99.90
10175;DHT22;18221;38.704;0.152;2024-02-16T01:01:13;13.60;99.90
10175;DHT22;18221;38.704;0.152;2024-02-16T01:03:42;13.60;99.90
10175;DHT22;18221;38.704;0.152;2024-02-16T01:06:09;13.60;99.90
10175;DHT22;18221;38.704;0.152;2024-02-16T01:08:36;13.50;99.90
10175;DHT22;18221;38.704;0.152;2024-02-16T01:11:06;13.50;99.90
10175;DHT22;18221;38.704;0.152;2024-02-16T01:13:34;13.50;99.90
10175;DHT22;18221;38.704;0.152;2024-02-16T01:16:03;13.50;99.90
10175;DHT22;18221;38.704;0.152;2024-02-16T01:18:35;13.50;99.90
10175;DHT22;18221;38.704;0.152;2024-02-16T01:21:06;13.50;99.90
10175;DHT22;18221;38.704;0.152;2024-02-16T01:23:34;13.50;99.90
10175;DHT22;18221;38.704;0.152;2024-02-16T01:26:02;13.40;99.90
10175;DHT22;18221;38.704;0.152;2024-02-16T01:28:30;13.40;99.90
10175;DHT22;18221;38.704;0.152;2024-02-16T01:30:58;13.40;99.90
10175;DHT22;18221;38.704;0.152;2024-02-16T01:33:26;13.40;99.90
10175;DHT22;18221;38.704;0.152;2024-02-16T01:35:56;13.40;99.90
10175;DHT22;18221;38.704;0.152;2024-02-16T01:38:24;13.40;99.90
10175;DHT22;18221;38.704;0.152;2024-02-16T01:40:52;13.40;99.90
10175;DHT22;18221;38.704;0.152;2024-02-16T01:43:20;13.40;99.90
10175;DHT22;18221;38.704;0.152;2024-02-16T01:45:48;13.40;99.90
10175;DHT22;18221;38.704;0.152;2024-02-16T01:48:17;13.40;99.90
10175;DHT22;18221;38.704;0.152;2024-02-16T01:50:46;13.40;99.90
10175;DHT22;18221;38.704;0.152;2024-02-16T01:53:18;13.40;99.90
10175;DHT22;18221;38.704;0.152;2024-02-16T01:55:46;13.40;99.90
10175;DHT22;18221;38.704;0.152;2024-02-16T01:58:17;13.40;99.90
10175;DHT22;18221;38.704;0.152;2024-02-16T02:00:45;13.40;99.90
10175;DHT22;18221;38.704;0.152;2024-02-16T02:03:13;13.40;99.90
10175;DHT22;18221;38.704;0.152;2024-02-16T02:05:45;13.40;99.90
10175;DHT22;18221;38.704;0.152;2024-02-16T02:08:14;13.40;99.90
10175;DHT22;18221;38.704;0.152;2024-02-16T02:10:43;13.50;99.90
10175;DHT22;18221;38.704;0.152;2024-02-16T02:13:11;13.50;99.90
10175;DHT22;18221;38.704;0.152;2024-02-16T02:15:41;13.50;99.90
10175;DHT22;18221;38.704;0.152;2024-02-16T02:18:09;13.50;99.90
10175;DHT22;18221;38.704;0.152;2024-02-16T02:20:36;13.50;99.90
10175;DHT22;18221;38.704;0.152;2024-02-16T02:23:06;13.50;99.90
10175;DHT22;18221;38.704;0.152;2024-02-16T02:25:34;13.50;99.90
10175;DHT22;18221;38.704;0.152;2024-02-16T02:28:02;13.50;99.90
10175;DHT22;18221;38.704;0.152;2024-02-16T02:30:32;13.40;99.90
10175;DHT22;18221;38.704;0.152;2024-02-16T02:32:59;13.40;99.90
10175;DHT22;18221;38.704;0.152;2024-02-16T02:35:27;13.40;99.90
10175;DHT22;18221;38.704;0.152;2024-02-16T02:37:55;13.40;99.90
10175;DHT22;18221;38.704;0.152;2024-02-16T02:40:27;13.40;99.90
10175;DHT22;18221;38.704;0.152;2024-02-16T02:42:55;13.40;99.90
10175;DHT22;18221;38.704;0.152;2024-02-16T02:45:26;13.40;99.90
10175;DHT22;18221;38.704;0.152;2024-02-16T02:47:54;13.30;99.90
10175;DHT22;18221;38.704;0.152;2024-02-16T02:50:22;13.30;99.90
10175;DHT22;18221;38.704;0.152;2024-02-16T02:52:50;13.30;99.90
10175;DHT22;18221;38.704;0.152;2024-02-16T02:55:17;13.30;99.90
10175;DHT22;18221;38.704;0.152;2024-02-16T02:57:49;13.20;99.90
10175;DHT22;18221;38.704;0.152;2024-02-16T03:00:17;13.20;99.90
10175;DHT22;18221;38.704;0.152;2024-02-16T03:02:45;13.20;99.90
10175;DHT22;18221;38.704;0.152;2024-02-16T03:05:14;13.20;99.90
10175;DHT22;18221;38.704;0.152;2024-02-16T03:07:42;13.20;99.90
10175;DHT22;18221;38.704;0.152;2024-02-16T03:10:10;13.20;99.90
10175;DHT22;18221;38.704;0.152;2024-02-16T03:12:40;13.10;99.90
10175;DHT22;18221;38.704;0.152;2024-02-16T03:15:10;13.20;99.90
10175;DHT22;18221;38.704;0.152;2024-02-16T03:17:38;13.20;99.90
10175;DHT22;18221;38.704;0.152;2024-02-16T03:20:06;13.20;99.90
10175;DHT22;18221;38.704;0.152;2024-02-16T03:22:35;13.20;99.90
10175;DHT22;18221;38.704;0.152;2024-02-16T03:25:03;13.10;99.90
10175;DHT22;18221;38.704;0.152;2024-02-16T03:27:32;13.00;99.90
10175;DHT22;18221;38.704;0.152;2024-02-16T03:30:00;13.00;99.90
10175;DHT22;18221;38.704;0.152;2024-02-16T03:32:30;13.00;99.90
10175;DHT22;18221;38.704;0.152;2024-02-16T03:34:58;13.00;99.90
10175;DHT22;18221;38.704;0.152;2024-02-16T03:37:26;13.00;99.90
10175;DHT22;18221;38.704;0.152;2024-02-16T03:39:54;13.00;99.90
10175;DHT22;18221;38.704;0.152;2024-02-16T03:42:22;13.00;99.90
10175;DHT22;18221;38.704;0.152;2024-02-16T03:44:50;13.00;99.90
10175;DHT22;18221;38.704;0.152;2024-02-16T03:47:18;13.00;99.90
10175;DHT22;18221;38.704;0.152;2024-02-16T03:49:48;13.00;99.90
10175;DHT22;18221;38.704;0.152;2024-02-16T03:52:16;13.00;99.90
10175;DHT22;18221;38.704;0.152;2024-02-16T03:54:45;13.00;99.90
10175;DHT22;18221;38.704;0.152;2024-02-16T03:57:17;13.00;99.90
10175;DHT22;18221;38.704;0.152;2024-02-16T03:59:45;13.00;99.90
10175;DHT22;18221;38.704;0.152;2024-02-16T04:02:13;13.00;99.90
10175;DHT22;18221;38.704;0.152;2024-02-16T04:04:41;13.00;99.90
10175;DHT22;18221;38.704;0.152;2024-02-16T04:07:14;12.90;99.90
10175;DHT22;18221;38.704;0.152;2024-02-16T04:09:42;13.00;99.90
10175;DHT22;18221;38.704;0.152;2024-02-16T04:12:10;13.00;99.90
10175;DHT22;18221;38.704;0.152;2024-02-16T04:14:37;13.00;99.90
10175;DHT22;18221;38.704;0.152;2024-02-16T04:17:07;13.00;99.90
10175;DHT22;18221;38.704;0.152;2024-02-16T04:19:36;13.00;99.90
10175;DHT22;18221;38.704;0.152;2024-02-16T04:22:04;13.00;99.90
10175;DHT22;18221;38.704;0.152;2024-02-16T04:24:34;13.00;99.90
10175;DHT22;18221;38.704;0.152;2024-02-16T04:27:05;13.10;99.90
10175;DHT22;18221;38.704;0.152;2024-02-16T04:29:34;13.10;99.90
10175;DHT22;18221;38.704;0.152;2024-02-16T04:32:02;13.20;99.90
10175;DHT22;18221;38.704;0.152;2024-02-16T04:34:30;13.10;99.90
10175;DHT22;18221;38.704;0.152;2024-02-16T04:36:58;13.10;99.90
10175;DHT22;18221;38.704;0.152;2024-02-16T04:39:26;13.20;99.90
10175;DHT22;18221;38.704;0.152;2024-02-16T04:41:57;13.20;99.90
10175;DHT22;18221;38.704;0.152;2024-02-16T04:44:24;13.20;99.90
10175;DHT22;18221;38.704;0.152;2024-02-16T04:46:52;13.20;99.90
10175;DHT22;18221;38.704;0.152;2024-02-16T04:49:23;13.20;99.90
10175;DHT22;18221;38.704;0.152;2024-02-16T04:51:51;10.70;99.90
10175;DHT22;18221;38.704;0.152;2024-02-16T04:54:19;13.20;99.90
10175;DHT22;18221;38.704;0.152;2024-02-16T04:56:46;13.20;99.90
10175;DHT22;18221;38.704;0.152;2024-02-16T04:59:16;13.20;99.90
10175;DHT22;18221;38.704;0.152;2024-02-16T05:01:43;13.20;99.90
10175;DHT22;18221;38.704;0.152;2024-02-16T05:04:12;13.20;99.90
10175;DHT22;18221;38.704;0.152;2024-02-16T05:06:43;13.10;99.90
10175;DHT22;18221;38.704;0.152;2024-02-16T05:09:12;13.10;99.90
10175;DHT22;18221;38.704;0.152;2024-02-16T05:11:42;13.10;99.90
10175;DHT22;18221;38.704;0.152;2024-02-16T05:14:10;13.00;99.90
10175;DHT22;18221;38.704;0.152;2024-02-16T05:16:46;13.10;99.90
10175;DHT22;18221;38.704;0.152;2024-02-16T05:19:14;13.00;99.90
10175;DHT22;18221;38.704;0.152;2024-02-16T05:21:43;13.00;99.90
10175;DHT22;18221;38.704;0.152;2024-02-16T05:24:11;12.90;99.90
10175;DHT22;18221;38.704;0.152;2024-02-16T05:26:39;12.90;99.90
10175;DHT22;18221;38.704;0.152;2024-02-16T05:29:07;12.90;99.90
10175;DHT22;18221;38.704;0.152;2024-02-16T05:31:34;12.90;99.90
10175;DHT22;18221;38.704;0.152;2024-02-16T05:34:04;12.80;99.90
10175;DHT22;18221;38.704;0.152;2024-02-16T05:36:31;12.80;99.90
10175;DHT22;18221;38.704;0.152;2024-02-16T05:39:01;12.80;99.90
10175;DHT22;18221;38.704;0.152;2024-02-16T05:41:45;12.80;99.90
10175;DHT22;18221;38.704;0.152;2024-02-16T05:44:14;12.80;99.90
10175;DHT22;18221;38.704;0.152;2024-02-16T05:46:41;12.80;99.90
10175;DHT22;18221;38.704;0.152;2024-02-16T05:49:13;12.90;99.90
10175;DHT22;18221;38.704;0.152;2024-02-16T05:51:41;12.90;99.90
10175;DHT22;18221;38.704;0.152;2024-02-16T05:54:26;13.00;99.90
10175;DHT22;18221;38.704;0.152;2024-02-16T05:56:54;13.00;99.90
10175;DHT22;18221;38.704;0.152;2024-02-16T05:59:21;13.10;99.90
10175;DHT22;18221;38.704;0.152;2024-02-16T06:01:50;13.00;99.90
10175;DHT22;18221;38.704;0.152;2024-02-16T06:04:20;13.10;99.90
10175;DHT22;18221;38.704;0.152;2024-02-16T06:06:47;13.00;99.90
10175;DHT22;18221;38.704;0.152;2024-02-16T06:09:15;13.00;99.90
10175;DHT22;18221;38.704;0.152;2024-02-16T06:11:43;13.10;99.90
10175;DHT22;18221;38.704;0.152;2024-02-16T06:14:11;13.10;99.90
10175;DHT22;18221;38.704;0.152;2024-02-16T06:16:39;13.20;99.90
10175;DHT22;18221;38.704;0.152;2024-02-16T06:19:08;13.30;99.90
10175;DHT22;18221;38.704;0.152;2024-02-16T06:21:37;13.30;99.90
10175;DHT22;18221;38.704;0.152;2024-02-16T06:24:05;13.30;99.90
10175;DHT22;18221;38.704;0.152;2024-02-16T06:26:33;13.40;99.90
10175;DHT22;18221;38.704;0.152;2024-02-16T06:29:01;13.40;99.90
10175;DHT22;18221;38.704;0.152;2024-02-16T06:31:29;13.40;99.90
10175;DHT22;18221;38.704;0.152;2024-02-16T06:33:57;13.40;99.90
10175;DHT22;18221;38.704;0.152;2024-02-16T06:36:25;13.40;99.90
10175;DHT22;18221;38.704;0.152;2024-02-16T06:38:54;13.40;99.90
10175;DHT22;18221;38.704;0.152;2024-02-16T06:41:22;13.50;99.90
10175;DHT22;18221;38.704;0.152;2024-02-16T06:43:50;13.50;99.90
10175;DHT22;18221;38.704;0.152;2024-02-16T06:46:18;13.50;99.90
10175;DHT22;18221;38.704;0.152;2024-02-16T06:48:46;13.50;99.90
10175;DHT22;18221;38.704;0.152;2024-02-16T06:51:14;13.50;99.90
10175;DHT22;18221;38.704;0.152;2024-02-16T06:53:44;13.50;99.90
10175;DHT22;18221;38.704;0.152;2024-02-16T06:56:13;13.50;99.90
10175;DHT22;18221;38.704;0.152;2024-02-16T06:58:41;13.60;99.90
10175;DHT22;18221;38.704;0.152;2024-02-16T07:01:09;13.60;99.90
10175;DHT22;18221;38.704;0.152;2024-02-16T07:03:37;13.60;99.90
10175;DHT22;18221;38.704;0.152;2024-02-16T07:06:05;13.70;99.90
10175;DHT22;18221;38.704;0.152;2024-02-16T07:08:36;13.70;99.90
10175;DHT22;18221;38.704;0.152;2024-02-16T07:11:04;13.70;99.90
10175;DHT22;18221;38.704;0.152;2024-02-16T07:13:34;13.70;99.90
10175;DHT22;18221;38.704;0.152;2024-02-16T07:16:01;13.70;99.90
10175;DHT22;18221;38.704;0.152;2024-02-16T07:18:32;13.70;99.90
10175;DHT22;18221;38.704;0.152;2024-02-16T07:21:00;13.70;99.90
10175;DHT22;18221;38.704;0.152;2024-02-16T07:23:29;13.70;99.90
10175;DHT22;18221;38.704;0.152;2024-02-16T07:25:57;13.70;99.90
10175;DHT22;18221;38.704;0.152;2024-02-16T07:28:25;13.70;99.90
10175;DHT22;18221;38.704;0.152;2024-02-16T07:30:54;13.70;99.90
10175;DHT22;18221;38.704;0.152;2024-02-16T07:33:22;13.70;99.90
10175;DHT22;18221;38.704;0.152;2024-02-16T07:35:54;13.70;99.90
10175;DHT22;18221;38.704;0.152;2024-02-16T07:38:22;13.70;99.90
10175;DHT22;18221;38.704;0.152;2024-02-16T07:40:50;13.80;99.90
10175;DHT22;18221;38.704;0.152;2024-02-16T07:43:18;13.80;99.90
10175;DHT22;18221;38.704;0.152;2024-02-16T07:45:47;13.80;99.90
10175;DHT22;18221;38.704;0.152;2024-02-16T07:48:17;13.80;99.90
10175;DHT22;18221;38.704;0.152;2024-02-16T07:50:44;15.50;99.90
10175;DHT22;18221;38.704;0.152;2024-02-16T07:53:12;14.00;99.90
10175;DHT22;18221;38.704;0.152;2024-02-16T07:55:40;14.10;99.90
10175;DHT22;18221;38.704;0.152;2024-02-16T07:58:08;14.10;99.90
10175;DHT22;18221;38.704;0.152;2024-02-16T08:00:36;14.20;99.90
10175;DHT22;18221;38.704;0.152;2024-02-16T08:03:04;14.30;99.90
10175;DHT22;18221;38.704;0.152;2024-02-16T08:05:33;14.30;99.90
10175;DHT22;18221;38.704;0.152;2024-02-16T08:08:01;14.40;99.90
10175;DHT22;18221;38.704;0.152;2024-02-16T08:10:30;14.50;99.90
10175;DHT22;18221;38.704;0.152;2024-02-16T08:12:58;14.50;99.90
10175;DHT22;18221;38.704;0.152;2024-02-16T08:15:26;14.50;99.90
10175;DHT22;18221;38.704;0.152;2024-02-16T08:17:54;14.60;99.90
10175;DHT22;18221;38.704;0.152;2024-02-16T08:20:23;14.60;99.90
10175;DHT22;18221;38.704;0.152;2024-02-16T08:22:53;14.70;99.90
10175;DHT22;18221;38.704;0.152;2024-02-16T08:25:23;14.70;99.90
10175;DHT22;18221;38.704;0.152;2024-02-16T08:27:51;14.70;99.90
10175;DHT22;18221;38.704;0.152;2024-02-16T08:30:19;14.70;99.90
10175;DHT22;18221;38.704;0.152;2024-02-16T08:32:48;14.70;99.90
10175;DHT22;18221;38.704;0.152;2024-02-16T08:35:15;14.80;99.90
10175;DHT22;18221;38.704;0.152;2024-02-16T08:37:44;14.70;99.90
10175;DHT22;18221;38.704;0.152;2024-02-16T08:40:14;14.60;99.90
10175;DHT22;18221;38.704;0.152;2024-02-16T08:42:42;14.50;99.90
10175;DHT22;18221;38.704;0.152;2024-02-16T08:45:10;14.40;99.90
10175;DHT22;18221;38.704;0.152;2024-02-16T08:47:40;14.40;99.90
10175;DHT22;18221;38.704;0.152;2024-02-16T08:50:09;14.30;99.90
10175;DHT22;18221;38.704;0.152;2024-02-16T08:52:37;14.30;99.90
10175;DHT22;18221;38.704;0.152;2024-02-16T08:55:06;14.20;99.90
10175;DHT22;18221;38.704;0.152;2024-02-16T08:57:36;14.30;99.90
10175;DHT22;18221;38.704;0.152;2024-02-16T09:00:05;14.30;99.90
10175;DHT22;18221;38.704;0.152;2024-02-16T09:02:35;14.40;99.90
10175;DHT22;18221;38.704;0.152;2024-02-16T09:05:03;14.40;99.90
10175;DHT22;18221;38.704;0.152;2024-02-16T09:07:31;14.50;99.90
10175;DHT22;18221;38.704;0.152;2024-02-16T09:09:59;14.50;99.90
10175;DHT22;18221;38.704;0.152;2024-02-16T09:12:27;14.50;99.90
10175;DHT22;18221;38.704;0.152;2024-02-16T09:14:56;14.50;99.90
10175;DHT22;18221;38.704;0.152;2024-02-16T09:17:24;14.40;99.90
10175;DHT22;18221;38.704;0.152;2024-02-16T09:19:52;14.30;99.90
10175;DHT22;18221;38.704;0.152;2024-02-16T09:22:20;14.30;99.90
10175;DHT22;18221;38.704;0.152;2024-02-16T09:24:48;14.30;99.90
10175;DHT22;18221;38.704;0.152;2024-02-16T09:27:16;13.90;99.90
10175;DHT22;18221;38.704;0.152;2024-02-16T09:29:45;14.30;99.90
10175;DHT22;18221;38.704;0.152;2024-02-16T09:32:14;14.30;99.90
10175;DHT22;18221;38.704;0.152;2024-02-16T09:34:42;14.30;99.90
10175;DHT22;18221;38.704;0.152;2024-02-16T09:37:10;14.30;99.90
10175;DHT22;18221;38.704;0.152;2024-02-16T09:39:38;14.40;99.90
10175;DHT22;18221;38.704;0.152;2024-02-16T09:42:07;14.40;99.90
10175;DHT22;18221;38.704;0.152;2024-02-16T09:44:36;14.40;99.90
10175;DHT22;18221;38.704;0.152;2024-02-16T09:47:05;14.40;99.90
10175;DHT22;18221;38.704;0.152;2024-02-16T09:49:37;14.40;99.90
10175;DHT22;18221;38.704;0.152;2024-02-16T09:52:09;14.40;99.90
10175;DHT22;18221;38.704;0.152;2024-02-16T09:54:38;14.30;99.90
10175;DHT22;18221;38.704;0.152;2024-02-16T09:57:06;14.30;99.90
10175;DHT22;18221;38.704;0.152;2024-02-16T09:59:34;14.30;99.90
10175;DHT22;18221;38.704;0.152;2024-02-16T10:02:02;14.30;99.90
10175;DHT22;18221;38.704;0.152;2024-02-16T10:04:33;14.30;99.90
10175;DHT22;18221;38.704;0.152;2024-02-16T10:07:03;14.20;99.90
10175;DHT22;18221;38.704;0.152;2024-02-16T10:09:31;14.20;99.90
10175;DHT22;18221;38.704;0.152;2024-02-16T10:11:59;14.20;99.90
10175;DHT22;18221;38.704;0.152;2024-02-16T10:14:27;14.20;99.90
10175;DHT22;18221;38.704;0.152;2024-02-16T10:17:01;14.20;99.90
10175;DHT22;18221;38.704;0.152;2024-02-16T10:19:30;14.20;99.90
10175;DHT22;18221;38.704;0.152;2024-02-16T10:22:10;14.10;99.90
10175;DHT22;18221;38.704;0.152;2024-02-16T10:24:38;14.10;99.90
10175;DHT22;18221;38.704;0.152;2024-02-16T10:27:14;14.10;99.90
10175;DHT22;18221;38.704;0.152;2024-02-16T10:29:43;14.10;99.90
10175;DHT22;18221;38.704;0.152;2024-02-16T10:32:15;14.00;99.90
10175;DHT22;18221;38.704;0.152;2024-02-16T10:34:46;14.00;99.90
10175;DHT22;18221;38.704;0.152;2024-02-16T10:37:19;13.90;99.90
10175;DHT22;18221;38.704;0.152;2024-02-16T10:39:51;13.90;99.90
10175;DHT22;18221;38.704;0.152;2024-02-16T10:42:22;13.80;99.90
10175;DHT22;18221;38.704;0.152;2024-02-16T10:44:53;13.80;99.90
10175;DHT22;18221;38.704;0.152;2024-02-16T10:47:21;13.80;99.90
10175;DHT22;18221;38.704;0.152;2024-02-16T10:49:49;13.80;99.90
10175;DHT22;18221;38.704;0.152;2024-02-16T10:52:18;13.80;99.90
10175;DHT22;18221;38.704;0.152;2024-02-16T10:54:47;13.80;99.90
10175;DHT22;18221;38.704;0.152;2024-02-16T10:57:17;13.80;99.90
10175;DHT22;18221;38.704;0.152;2024-02-16T10:59:45;13.80;99.90
10175;DHT22;18221;38.704;0.152;2024-02-16T11:02:13;13.80;99.90
10175;DHT22;18221;38.704;0.152;2024-02-16T11:04:46;13.90;99.90
10175;DHT22;18221;38.704;0.152;2024-02-16T11:07:18;13.80;99.90
10175;DHT22;18221;38.704;0.152;2024-02-16T11:09:47;13.80;99.90
10175;DHT22;18221;38.704;0.152;2024-02-16T11:12:15;13.80;99.90
10175;DHT22;18221;38.704;0.152;2024-02-16T11:14:44;13.80;99.90
10175;DHT22;18221;38.704;0.152;2024-02-16T11:17:13;13.80;99.90
10175;DHT22;18221;38.704;0.152;2024-02-16T11:19:43;13.80;99.90
10175;DHT22;18221;38.704;0.152;2024-02-16T11:22:15;13.70;99.90
10175;DHT22;18221;38.704;0.152;2024-02-16T11:24:46;13.70;99.90
10175;DHT22;18221;38.704;0.152;2024-02-16T11:27:15;13.70;99.90
10175;DHT22;18221;38.704;0.152;2024-02-16T11:29:47;13.80;99.90
10175;DHT22;18221;38.704;0.152;2024-02-16T11:32:18;13.80;99.90
10175;DHT22;18221;38.704;0.152;2024-02-16T11:34:47;13.80;99.90
10175;DHT22;18221;38.704;0.152;2024-02-16T11:37:14;13.80;99.90
10175;DHT22;18221;38.704;0.152;2024-02-16T11:39:45;13.80;99.90
10175;DHT22;18221;38.704;0.152;2024-02-16T11:42:13;13.70;99.90
10175;DHT22;18221;38.704;0.152;2024-02-16T11:44:52;13.70;99.90
10175;DHT22;18221;38.704;0.152;2024-02-16T11:47:22;13.80;99.90
10175;DHT22;18221;38.704;0.152;2024-02-16T11:50:01;13.80;99.90
10175;DHT22;18221;38.704;0.152;2024-02-16T11:52:29;13.90;99.90
10175;DHT22;18221;38.704;0.152;2024-02-16T11:54:59;13.80;99.90
10175;DHT22;18221;38.704;0.152;2024-02-16T11:57:29;13.80;99.90
10175;DHT22;18221;38.704;0.152;2024-02-16T11:59:58;13.90;99.90
10175;DHT22;18221;38.704;0.152;2024-02-16T12:02:26;13.80;99.90
10175;DHT22;18221;38.704;0.152;2024-02-16T12:04:58;13.90;99.90
10175;DHT22;18221;38.704;0.152;2024-02-16T12:07:29;14.00;99.90
10175;DHT22;18221;38.704;0.152;2024-02-16T12:09:59;14.10;99.90
10175;DHT22;18221;38.704;0.152;2024-02-16T12:12:28;14.10;99.90
10175;DHT22;18221;38.704;0.152;2024-02-16T12:14:55;14.20;99.90
10175;DHT22;18221;38.704;0.152;2024-02-16T12:17:23;14.10;99.90
10175;DHT22;18221;38.704;0.152;2024-02-16T12:19:52;14.00;99.90
10175;DHT22;18221;38.704;0.152;2024-02-16T12:22:20;14.00;99.90
10175;DHT22;18221;38.704;0.152;2024-02-16T12:24:49;14.00;99.90
10175;DHT22;18221;38.704;0.152;2024-02-16T12:27:19;13.80;99.90
10175;DHT22;18221;38.704;0.152;2024-02-16T12:29:49;13.80;99.90
10175;DHT22;18221;38.704;0.152;2024-02-16T12:32:17;13.70;99.90
10175;DHT22;18221;38.704;0.152;2024-02-16T12:34:45;13.70;99.90
10175;DHT22;18221;38.704;0.152;2024-02-16T12:37:13;13.70;99.90
10175;DHT22;18221;38.704;0.152;2024-02-16T12:39:41;13.60;99.90
10175;DHT22;18221;38.704;0.152;2024-02-16T12:42:11;13.60;99.90
10175;DHT22;18221;38.704;0.152;2024-02-16T12:44:41;13.60;99.90
10175;DHT22;18221;38.704;0.152;2024-02-16T12:47:09;13.60;99.90
10175;DHT22;18221;38.704;0.152;2024-02-16T12:49:37;13.50;99.90
10175;DHT22;18221;38.704;0.152;2024-02-16T12:52:05;13.60;99.90
10175;DHT22;18221;38.704;0.152;2024-02-16T12:54:34;13.60;99.90
10175;DHT22;18221;38.704;0.152;2024-02-16T12:57:01;13.60;99.90
10175;DHT22;18221;38.704;0.152;2024-02-16T12:59:30;13.70;99.90
10175;DHT22;18221;38.704;0.152;2024-02-16T13:01:59;13.70;99.90
10175;DHT22;18221;38.704;0.152;2024-02-16T13:04:28;13.80;99.90
10175;DHT22;18221;38.704;0.152;2024-02-16T13:06:58;13.80;99.90
10175;DHT22;18221;38.704;0.152;2024-02-16T13:09:26;13.80;99.90
10175;DHT22;18221;38.704;0.152;2024-02-16T13:11:54;13.90;99.90
10175;DHT22;18221;38.704;0.152;2024-02-16T13:14:22;13.90;99.90
10175;DHT22;18221;38.704;0.152;2024-02-16T13:16:50;13.90;99.90
10175;DHT22;18221;38.704;0.152;2024-02-16T13:19:19;13.90;99.90
10175;DHT22;18221;38.704;0.152;2024-02-16T13:21:47;13.90;99.90
10175;DHT22;18221;38.704;0.152;2024-02-16T13:24:16;13.90;99.90
10175;DHT22;18221;38.704;0.152;2024-02-16T13:26:44;13.80;99.90
10175;DHT22;18221;38.704;0.152;2024-02-16T13:29:12;13.80;99.90
10175;DHT22;18221;38.704;0.152;2024-02-16T13:31:40;13.80;99.90
10175;DHT22;18221;38.704;0.152;2024-02-16T13:34:08;13.80;99.90
10175;DHT22;18221;38.704;0.152;2024-02-16T13:36:37;13.70;99.90
10175;DHT22;18221;38.704;0.152;2024-02-16T13:39:05;13.70;99.90
10175;DHT22;18221;38.704;0.152;2024-02-16T13:41:34;14.20;99.90
10175;DHT22;18221;38.704;0.152;2024-02-16T13:44:02;13.60;99.90
10175;DHT22;18221;38.704;0.152;2024-02-16T13:46:29;13.60;99.90
10175;DHT22;18221;38.704;0.152;2024-02-16T13:48:58;13.60;99.90
10175;DHT22;18221;38.704;0.152;2024-02-16T13:51:26;13.50;99.90
10175;DHT22;18221;38.704;0.152;2024-02-16T13:53:55;13.60;99.90
10175;DHT22;18221;38.704;0.152;2024-02-16T13:56:23;13.60;99.90
10175;DHT22;18221;38.704;0.152;2024-02-16T13:58:51;13.60;99.90
10175;DHT22;18221;38.704;0.152;2024-02-16T14:01:19;13.60;99.90
10175;DHT22;18221;38.704;0.152;2024-02-16T14:03:47;13.60;99.90
10175;DHT22;18221;38.704;0.152;2024-02-16T14:06:18;13.50;99.90
10175;DHT22;18221;38.704;0.152;2024-02-16T14:08:46;13.50;99.90
10175;DHT22;18221;38.704;0.152;2024-02-16T14:11:18;13.50;99.90
10175;DHT22;18221;38.704;0.152;2024-02-16T14:13:48;13.60;99.90
10175;DHT22;18221;38.704;0.152;2024-02-16T14:16:16;13.60;99.90
10175;DHT22;18221;38.704;0.152;2024-02-16T14:18:44;13.60;99.90
10175;DHT22;18221;38.704;0.152;2024-02-16T14:21:14;13.70;99.90
10175;DHT22;18221;38.704;0.152;2024-02-16T14:23:41;13.70;99.90
10175;DHT22;18221;38.704;0.152;2024-02-16T14:31:31;13.40;99.90
10175;DHT22;18221;38.704;0.152;2024-02-16T14:34:00;13.60;99.90
10175;DHT22;18221;38.704;0.152;2024-02-16T14:36:28;13.60;99.90
10175;DHT22;18221;38.704;0.152;2024-02-16T14:38:56;13.60;99.90
10175;DHT22;18221;38.704;0.152;2024-02-16T14:41:26;13.70;99.90
10175;DHT22;18221;38.704;0.152;2024-02-16T14:43:55;13.70;99.90
10175;DHT22;18221;38.704;0.152;2024-02-16T14:46:25;13.70;99.90
10175;DHT22;18221;38.704;0.152;2024-02-16T14:48:55;13.70;99.90
10175;DHT22;18221;38.704;0.152;2024-02-16T14:51:25;13.70;99.90
10175;DHT22;18221;38.704;0.152;2024-02-16T14:53:56;13.70;99.90
10175;DHT22;18221;38.704;0.152;2024-02-16T14:56:25;13.70;99.90
10175;DHT22;18221;38.704;0.152;2024-02-16T14:58:53;13.70;99.90
10175;DHT22;18221;38.704;0.152;2024-02-16T15:01:22;13.70;99.90
10175;DHT22;18221;38.704;0.152;2024-02-16T15:03:50;13.70;99.90
10175;DHT22;18221;38.704;0.152;2024-02-16T15:06:19;13.70;99.90
10175;DHT22;18221;38.704;0.152;2024-02-16T15:08:47;13.80;99.90
10175;DHT22;18221;38.704;0.152;2024-02-16T15:11:14;13.90;99.90
10175;DHT22;18221;38.704;0.152;2024-02-16T15:13:43;13.80;99.90
10175;DHT22;18221;38.704;0.152;2024-02-16T15:16:11;13.90;99.90
10175;DHT22;18221;38.704;0.152;2024-02-16T15:18:39;13.80;99.90
10175;DHT22;18221;38.704;0.152;2024-02-16T15:21:07;13.80;99.90
10175;DHT22;18221;38.704;0.152;2024-02-16T15:23:36;13.80;99.90
10175;DHT22;18221;38.704;0.152;2024-02-16T15:26:10;13.80;99.90
10175;DHT22;18221;38.704;0.152;2024-02-16T15:28:38;13.80;99.90
10175;DHT22;18221;38.704;0.152;2024-02-16T15:31:07;13.80;99.90
10175;DHT22;18221;38.704;0.152;2024-02-16T15:33:35;13.80;99.90
10175;DHT22;18221;38.704;0.152;2024-02-16T15:36:03;13.80;99.90
10175;DHT22;18221;38.704;0.152;2024-02-16T15:38:31;13.80;99.90
10175;DHT22;18221;38.704;0.152;2024-02-16T15:41:00;13.90;99.90
10175;DHT22;18221;38.704;0.152;2024-02-16T15:43:28;13.80;99.90
10175;DHT22;18221;38.704;0.152;2024-02-16T15:45:56;13.80;99.90
10175;DHT22;18221;38.704;0.152;2024-02-16T15:48:24;13.80;99.90
10175;DHT22;18221;38.704;0.152;2024-02-16T15:50:52;13.80;99.90
10175;DHT22;18221;38.704;0.152;2024-02-16T15:53:20;13.80;99.90
10175;DHT22;18221;38.704;0.152;2024-02-16T15:55:48;13.80;99.90